AirNav   Everest Fuels
 
 942 users online  

2OK7 Cole Landing Area Airport
Newcastle, Oklahoma, USA

GOING TO NEWCASTLE?


FAA INFORMATION EFFECTIVE 07 NOVEMBER 2019

Location

FAA Identifier: 2OK7
Lat/Long: 35-15-30.2290N 097-39-46.1420W
35-15.503817N 097-39.769033W
35.2583969,-97.6628172
(estimated)
Elevation: 1353 ft. / 412.4 m (surveyed)
Variation: 07E (1985)
From city: 3 miles W of NEWCASTLE, OK
Time zone: UTC -6 (UTC -5 during Daylight Saving Time)
Zip code: 73065

Airport Operations

Airport use: Private use. Permission required prior to landing
Activation date: 09/1971
Control tower: no
ARTCC: FORT WORTH CENTER
FSS: MC ALESTER FLIGHT SERVICE STATION
Attendance: UNATNDD
Wind indicator: yes
Segmented circle: no

Airport Communications

CTAF: 122.9
WX ASOS at OKC (9 nm N): PHONE 405-686-4711
WX AWOS-3 at OUN (9 nm E): 119.55 (405-325-7302)
WX AWOS-3 at RCE (16 nm NW): 125.05 (405-354-2617)
WX ASOS at PWA (17 nm N): PHONE 405-798-2013
WX AWOS-3 at CHK (18 nm SW): 118.175 (405-574-1016)

Nearby radio navigation aids

VOR radial/distance  VOR name  Freq  Var
IRWr197/6.6WILL ROGERS VORTAC114.1007E
PWAr175/16.5WILEY POST VOR/DME113.4008E
IFIr144/36.8KINGFISHER VORTAC114.7009E

 
NDB name  Hdg/Dist  Freq  Var  ID
GALLY234/4.235005ERG .-. --.
MULDROW297/25.351206EHMY .... -- -.--

Airport Services

Airframe service: NONE
Powerplant service: NONE

Runway Information

Runway 18/36

Dimensions: 2500 x 150 ft. / 762 x 46 m
Surface: turf
RUNWAY 18  RUNWAY 36
Traffic pattern: leftleft
Obstructions: roadtower, marked and lighted

Airport Ownership and Management from official FAA records

Ownership: Privately-owned
Owner: RYAN AND JENNIFER SMITH
1430 REDBUD LN
NEWCASTLE, OK 73065
Phone 405-229-7612
Manager: COLE AIRPARK MAINTENANCE CORP
1121 N HWY 76
NEWCASTLE, OK 73055
Phone 405-517-6121

Airport Operational Statistics

Aircraft based on the field: 13
Single engine airplanes: 13
    

Additional Remarks

UNLGTD TWR 3000 FT SOUTH OF AER RWY 36 AND 200 FT EAST OF CNTRLN.
FOR CD CTC OKE CITY APCH AT 405-681-5683.
DAY OPS ONLY: NO OPS BTN LCL EVE CIVIL TWI TO LCL MORNING CIVIL TWI
PVT ARPT. USE AT OWN RISK. HOMES AND HANGERS LOCATED ON W SIDE OF RWY. ROADWAY AND 6 FT CHAIN LINK FENCE NORTH OF RWY 17
COM TWR LOCATED SOUTH AND EAST OF RUNWAY 35-246 FT HIGH 3425 FT SE OF EOR. BEWARE OF WILDLIFE; TURKEYS AND DEER ARE FREQUENTLY ON OR NEAR THE RWY.

Instrument Procedures

There are no published instrument procedures at 2OK7.

Some nearby airports with instrument procedures:

KOKC - Will Rogers World Airport (9 nm N)
KOUN - University of Oklahoma Westheimer Airport (9 nm E)
1K4 - David Jay Perry Airport (11 nm SE)
KRCE - Clarence E Page Municipal Airport (16 nm NW)
KTIK - Tinker Air Force Base (16 nm NE)
KPWA - Wiley Post Airport (17 nm N)
KCHK - Chickasha Municipal Airport (18 nm SW)
 
Loc | Ops | Rwys | IFR | FBO | Links
Com | Nav | Svcs | Stats | Notes
Area around 2OK7 (Cole Landing Area Airport)
 
Road maps at: MapQuest Bing Google
 
Aerial photo
No photo
 
Sectional chart

 
Airport distance calculator
Flying to Cole Landing Area Airport? Find the distance to fly.

From to 2OK7

Sunrise and sunset
Times for 21-Nov-2019
 Local
(UTC-6)
 Zulu
(UTC)
Morning civil twilight06:4512:45
Sunrise07:1313:13
Sunset17:2123:21
Evening civil twilight17:4823:48

Current date and time
Zulu (UTC)  22-Nov-2019 03:39:27
Local (UTC-6)  21-Nov-2019 21:39:27
 
METAR
KOKC 
8nm N 
220252Z 02013KT 3SM -RA BR BKN008 OVC012 06/05 A3009 RMK AO2 DZE25RAB25 SLP191 P0000 60001 T00560050 53016
KOUN 
11nm E 
220245Z 35013KT 7SM OVC009 06/05 A3007 RMK LTG DSNT E
KRCE 
16nm NW 
220315Z AUTO 02013KT 10SM 05/03 A3011 RMK AO2
KPWA 
17nm N 
220323Z 02016KT 10SM BKN010 OVC014 06/04 A3011 RMK AO2 RAE12 CIG 008V012 P0000 T00610044
KTIK 
17nm NE 
220319Z AUTO 36012KT 8SM SCT006 OVC009 06/06 A3009 RMK AO2 RAE10DZB10E15 CIG 005 RWY13 CIG 007 RWY18 SLP199
KCHK 
18nm SW 
220315Z AUTO 01015KT 10SM OVC010 06/05 A3008 RMK AO2 LTG DSNT E T00600049
TAF
KOKC 
8nm N 
211849Z 2119/2218 36015G20KT P6SM OVC015 FM212100 01013G20KT P6SM VCSH OVC015 TEMPO 2121/2124 5SM TSRA BR OVC015CB FM220000 01016G24KT 4SM -RA BR OVC011 FM221200 01017KT P6SM OVC015 PROB30 2212/2215 P6SM -RA OVC015
KOUN 
11nm E 
211851Z 2119/2218 34015G20KT P6SM OVC018 FM212000 01012G18KT P6SM VCSH OVC015 TEMPO 2120/2124 5SM TSRA BR OVC015CB FM220000 36016G24KT 4SM -RA BR OVC009 FM221200 01017KT P6SM OVC015 PROB30 2212/2215 P6SM -RA OVC015
KTIK 
17nm NE 
220200Z 2202/2308 01012G18KT 9000 -SHRA OVC007 620802 QNH2998INS BECMG 2203/2204 36010G15KT 9999 NSW BKN020 620802 QNH3004INS BECMG 2210/2211 36012G18KT 8000 -SHRA VCTS BKN010CB OVC090 620802 QNH3005INS BECMG 2214/2215 36012KT 9999 NSW BKN015 620802 QNH3008INS BECMG 2218/2219 35012KT 9999 FEW015 BKN025 QNH3010INS TX10/2202Z TN04/2213Z
NOTAMs
Click for the latest NOTAMs
NOTAMs are issued by the DoD/FAA and will open in a separate window not controlled by AirNav.

 

 
 

Would you like to see your business listed on this page?

 If your business provides an interesting product or service to pilots, flight crews, aircraft, or users of the Cole Landing Area Airport, you should consider listing it here.  To start the listing process, click on the button below
 
Add a business
 

Other Pages about Cole Landing Area Airport

Update a link
 
Copyright © AirNav, LLC. All rights reserved. Privacy Policy  Contact